createdAt,value
2018-04-13T00:01:03.382Z,11.90
2018-04-13T00:03:29.765Z,11.90
2018-04-13T00:05:56.203Z,11.80
2018-04-13T00:08:23.500Z,11.40
2018-04-13T00:10:50.665Z,11.30
2018-04-13T00:13:17.857Z,11.40
2018-04-13T00:15:44.280Z,11.40
2018-04-13T00:18:11.516Z,11.50
2018-04-13T00:20:38.001Z,11.50
2018-04-13T00:23:04.604Z,11.50
2018-04-13T00:25:30.991Z,11.50
2018-04-13T00:27:58.137Z,11.50
2018-04-13T00:30:25.288Z,11.40
2018-04-13T00:32:52.444Z,11.40
2018-04-13T00:35:19.565Z,11.40
2018-04-13T00:37:46.022Z,11.40
2018-04-13T00:40:13.181Z,11.60
2018-04-13T00:42:40.339Z,11.60
2018-04-13T00:45:06.788Z,11.60
2018-04-13T00:47:33.223Z,11.50
2018-04-13T00:49:59.688Z,11.50
2018-04-13T00:52:26.088Z,11.40
2018-04-13T00:54:52.507Z,11.30
2018-04-13T00:57:18.923Z,11.30
2018-04-13T00:59:45.348Z,11.20
2018-04-13T01:02:11.840Z,11.10
2018-04-13T01:04:38.354Z,11.10
2018-04-13T01:07:04.724Z,11.10
2018-04-13T01:09:31.879Z,11.30
2018-04-13T01:11:59.025Z,11.40
2018-04-13T01:14:25.431Z,11.40
2018-04-13T01:16:51.830Z,11.30
2018-04-13T01:19:18.263Z,11.00
2018-04-13T01:21:44.643Z,11.00
2018-04-13T01:24:11.027Z,11.10
2018-04-13T01:26:39.197Z,11.10
2018-04-13T01:29:05.547Z,11.10
2018-04-13T01:31:32.010Z,11.10
2018-04-13T01:33:59.133Z,11.10
2018-04-13T01:36:25.506Z,11.10
2018-04-13T01:38:51.924Z,11.10
2018-04-13T01:41:18.313Z,11.10
2018-04-13T01:43:44.702Z,11.20
2018-04-13T01:46:11.131Z,11.20
2018-04-13T01:48:37.532Z,11.20
2018-04-13T01:51:04.657Z,11.20
2018-04-13T01:53:31.056Z,11.10
2018-04-13T01:55:57.456Z,11.20
2018-04-13T01:58:23.902Z,11.20
2018-04-13T02:00:50.305Z,11.20
2018-04-13T02:03:16.731Z,11.10
2018-04-13T02:05:43.190Z,11.10
2018-04-13T02:08:09.571Z,10.90
2018-04-13T02:10:36.071Z,10.80
2018-04-13T02:13:02.508Z,10.90
2018-04-13T02:15:28.904Z,11.00
2018-04-13T02:17:55.345Z,10.90
2018-04-13T02:20:22.501Z,10.90
2018-04-13T02:22:48.914Z,10.80
2018-04-13T02:25:15.285Z,10.80
2018-04-13T02:27:43.432Z,10.80
2018-04-13T02:30:10.577Z,10.80
2018-04-13T02:32:37.699Z,10.90
2018-04-13T02:35:04.085Z,10.90
2018-04-13T02:37:30.511Z,11.00
2018-04-13T02:39:56.938Z,11.10
2018-04-13T02:42:23.349Z,11.10
2018-04-13T02:44:51.303Z,11.00
2018-04-13T02:47:18.489Z,11.00
2018-04-13T02:49:44.919Z,10.90
2018-04-13T02:52:11.334Z,11.00
2018-04-13T02:54:37.777Z,11.00
2018-04-13T02:57:04.159Z,10.90
2018-04-13T02:59:30.562Z,10.90
2018-04-13T03:01:56.930Z,11.00
2018-04-13T03:04:23.324Z,10.90
2018-04-13T03:06:49.717Z,11.00
2018-04-13T03:09:16.863Z,11.10
2018-04-13T03:11:43.861Z,11.20
2018-04-13T03:14:10.261Z,11.20
2018-04-13T03:16:36.734Z,11.20
2018-04-13T03:19:03.134Z,11.20
2018-04-13T03:21:29.563Z,11.30
2018-04-13T03:23:55.944Z,11.20
2018-04-13T03:26:22.344Z,11.20
2018-04-13T03:28:48.785Z,11.10
2018-04-13T03:31:15.228Z,11.00
2018-04-13T03:33:41.687Z,11.10
2018-04-13T03:36:08.086Z,11.20
2018-04-13T03:38:34.452Z,11.20
2018-04-13T03:41:00.822Z,11.20
2018-04-13T03:43:27.220Z,11.20
2018-04-13T03:45:54.343Z,11.00
2018-04-13T03:48:20.756Z,11.00
2018-04-13T03:50:47.985Z,11.00
2018-04-13T03:53:14.355Z,11.00
2018-04-13T03:55:40.963Z,11.00
2018-04-13T03:58:07.436Z,11.00
2018-04-13T04:00:34.037Z,11.00
2018-04-13T04:03:00.442Z,11.10
2018-04-13T04:05:26.886Z,11.20
2018-04-13T04:07:53.216Z,11.30
2018-04-13T04:10:19.611Z,11.30
2018-04-13T04:12:46.008Z,11.20
2018-04-13T04:15:12.421Z,11.10
2018-04-13T04:17:38.831Z,11.10
2018-04-13T04:20:23.509Z,11.00
2018-04-13T04:23:08.425Z,11.00
2018-04-13T04:26:03.864Z,10.90
2018-04-13T04:28:30.368Z,10.90
2018-04-13T04:30:56.807Z,10.90
2018-04-13T04:33:23.224Z,11.00
2018-04-13T04:35:49.591Z,11.00
2018-04-13T04:38:16.047Z,11.00
2018-04-13T04:40:42.426Z,11.00
2018-04-13T04:43:08.878Z,11.10
2018-04-13T04:45:35.365Z,11.10
2018-04-13T04:48:01.803Z,11.20
2018-04-13T04:50:28.920Z,11.20
2018-04-13T04:52:55.317Z,11.20
2018-04-13T04:55:22.606Z,11.10
2018-04-13T04:57:48.960Z,11.20
2018-04-13T05:00:15.342Z,11.30
2018-04-13T05:02:41.749Z,11.30
2018-04-13T05:05:08.232Z,11.30
2018-04-13T05:07:35.379Z,11.40
2018-04-13T05:10:02.696Z,11.40
2018-04-13T05:12:29.170Z,11.40
2018-04-13T05:14:55.596Z,11.40
2018-04-13T05:17:22.021Z,11.40
2018-04-13T05:19:55.279Z,11.40
2018-04-13T05:22:21.730Z,11.40
2018-04-13T05:24:48.200Z,11.40
2018-04-13T05:27:14.660Z,11.40
2018-04-13T05:29:41.077Z,11.50
2018-04-13T05:32:08.238Z,11.50
2018-04-13T05:34:34.592Z,11.50
2018-04-13T05:37:01.816Z,11.50
2018-04-13T05:39:28.342Z,11.50
2018-04-13T05:41:54.836Z,11.50
2018-04-13T05:44:21.345Z,11.50
2018-04-13T05:46:47.815Z,11.50
2018-04-13T05:49:14.332Z,11.60
2018-04-13T05:51:40.840Z,11.70
2018-04-13T05:54:08.091Z,11.90
2018-04-13T05:56:34.584Z,11.90
2018-04-13T05:59:01.019Z,11.90
2018-04-13T06:01:27.485Z,11.90
2018-04-13T06:03:54.176Z,11.90
2018-04-13T06:06:20.616Z,12.00
2018-04-13T06:08:47.863Z,12.00
2018-04-13T06:11:14.515Z,11.90
2018-04-13T06:13:41.180Z,12.00
2018-04-13T06:16:07.581Z,12.00
2018-04-13T06:18:34.195Z,12.20
2018-04-13T06:21:00.715Z,12.30
2018-04-13T06:23:27.260Z,12.40
2018-04-13T06:25:54.075Z,12.50
2018-04-13T06:28:20.563Z,12.50
2018-04-13T06:30:47.778Z,12.60
2018-04-13T06:33:14.254Z,12.60
2018-04-13T06:35:40.730Z,12.70
2018-04-13T06:38:07.184Z,12.80
2018-04-13T06:40:34.383Z,12.90
2018-04-13T06:43:00.860Z,12.90
2018-04-13T06:45:27.407Z,13.00
2018-04-13T06:47:53.849Z,13.00
2018-04-13T06:50:20.277Z,13.10
2018-04-13T06:52:47.512Z,13.20
2018-04-13T06:55:13.904Z,13.10
2018-04-13T06:57:40.399Z,13.20
2018-04-13T07:00:07.014Z,13.30
2018-04-13T07:02:33.599Z,13.30
2018-04-13T07:05:00.029Z,13.40
2018-04-13T07:07:26.504Z,13.50
2018-04-13T07:09:52.985Z,13.50
2018-04-13T07:12:19.473Z,13.60
2018-04-13T07:14:46.069Z,13.50
2018-04-13T07:17:12.499Z,13.50
2018-04-13T07:19:38.915Z,13.50
2018-04-13T07:22:05.314Z,13.60
2018-04-13T07:24:31.800Z,13.70
2018-04-13T07:26:58.264Z,13.80
2018-04-13T07:29:24.754Z,13.70
2018-04-13T07:31:51.222Z,13.70
2018-04-13T07:34:17.619Z,13.80
2018-04-13T07:36:44.119Z,13.90
2018-04-13T07:39:11.638Z,14.10
2018-04-13T07:41:38.006Z,14.00
2018-04-13T07:44:04.538Z,14.10
2018-04-13T07:46:31.097Z,14.20
2018-04-13T07:48:57.505Z,14.20
2018-04-13T07:51:24.059Z,14.20
2018-04-13T07:53:50.592Z,14.20
2018-04-13T07:56:16.981Z,14.30
2018-04-13T07:58:43.619Z,14.30
2018-04-13T08:01:10.131Z,14.30
2018-04-13T08:03:37.569Z,14.40
2018-04-13T08:06:04.051Z,14.50
2018-04-13T08:08:30.585Z,14.50
2018-04-13T08:10:57.079Z,14.50
2018-04-13T08:13:23.504Z,14.50
2018-04-13T08:15:50.056Z,14.50
2018-04-13T08:18:16.476Z,14.40
2018-04-13T08:20:42.910Z,14.40
2018-04-13T08:23:09.343Z,14.50
2018-04-13T08:25:35.781Z,14.60
2018-04-13T08:28:02.206Z,14.60
2018-04-13T08:30:28.677Z,14.60
2018-04-13T08:32:55.171Z,14.70
2018-04-13T08:35:21.710Z,14.70
2018-04-13T08:37:48.225Z,14.80
2018-04-13T08:40:14.612Z,14.90
2018-04-13T08:42:41.810Z,15.10
2018-04-13T08:45:08.312Z,15.10
2018-04-13T08:47:34.752Z,15.20
2018-04-13T08:50:01.216Z,15.30
2018-04-13T08:52:27.810Z,15.40
2018-04-13T08:54:54.349Z,15.40
2018-04-13T08:57:21.573Z,15.40
2018-04-13T08:59:48.013Z,15.40
2018-04-13T09:02:14.533Z,15.40
2018-04-13T09:04:41.186Z,15.20
2018-04-13T09:07:08.340Z,14.90
2018-04-13T09:09:34.817Z,14.90
2018-04-13T09:12:01.409Z,14.90
2018-04-13T09:14:44.605Z,14.80
2018-04-13T09:17:11.145Z,14.70
2018-04-13T09:19:37.591Z,14.70
2018-04-13T09:22:04.310Z,14.60
2018-04-13T09:24:30.908Z,14.60
2018-04-13T09:26:57.397Z,14.60
2018-04-13T09:29:24.582Z,14.50
2018-04-13T09:31:51.214Z,14.50
2018-04-13T09:34:17.785Z,14.60
2018-04-13T09:36:44.321Z,14.60
2018-04-13T09:39:11.782Z,14.70
2018-04-13T09:41:38.315Z,14.60
2018-04-13T09:44:04.740Z,14.50
2018-04-13T09:46:31.246Z,14.60
2018-04-13T09:48:57.704Z,14.50
2018-04-13T09:51:24.140Z,14.50
2018-04-13T09:53:51.384Z,14.10
2018-04-13T09:56:17.993Z,14.10
2018-04-13T09:58:44.450Z,13.80
2018-04-13T10:01:11.916Z,13.50
2018-04-13T10:03:44.292Z,13.20
2018-04-13T10:06:10.801Z,13.20
2018-04-13T10:08:37.243Z,13.10
2018-04-13T10:11:03.638Z,13.00
2018-04-13T10:13:30.301Z,12.90
2018-04-13T10:15:56.880Z,12.90
2018-04-13T10:18:24.099Z,13.10
2018-04-13T10:20:50.547Z,13.10
2018-04-13T10:23:17.064Z,13.00
2018-04-13T10:25:43.511Z,13.00
2018-04-13T10:28:09.932Z,13.00
2018-04-13T10:30:36.381Z,12.90
2018-04-13T10:33:02.817Z,12.90
2018-04-13T10:35:29.260Z,12.70
2018-04-13T10:37:56.493Z,12.30
2018-04-13T10:40:22.921Z,12.30
2018-04-13T10:42:49.428Z,12.20
2018-04-13T10:45:15.939Z,12.10
2018-04-13T10:47:42.424Z,12.00
2018-04-13T10:50:08.851Z,11.80
2018-04-13T10:52:35.404Z,11.60
2018-04-13T10:55:01.866Z,11.60
2018-04-13T10:57:28.347Z,11.50
2018-04-13T10:59:54.774Z,11.60
2018-04-13T11:02:21.224Z,11.50
2018-04-13T11:04:47.629Z,11.50
2018-04-13T11:07:14.134Z,11.40
2018-04-13T11:09:40.631Z,11.30
2018-04-13T11:12:07.098Z,11.30
2018-04-13T11:14:33.615Z,11.20
2018-04-13T11:17:00.028Z,11.10
2018-04-13T11:19:27.251Z,11.10
2018-04-13T11:21:53.666Z,11.10
2018-04-13T11:24:20.085Z,11.20
2018-04-13T11:26:46.576Z,11.10
2018-04-13T11:29:13.046Z,11.10
2018-04-13T11:31:40.349Z,11.10
2018-04-13T11:34:06.824Z,11.10
2018-04-13T11:36:33.282Z,11.20
2018-04-13T11:38:59.793Z,11.30
2018-04-13T11:41:26.240Z,11.20
2018-04-13T11:43:52.684Z,11.20
2018-04-13T11:46:19.407Z,11.20
2018-04-13T11:48:45.963Z,11.20
2018-04-13T11:51:12.558Z,11.20
2018-04-13T11:53:39.034Z,11.20
2018-04-13T11:56:05.720Z,11.20
2018-04-13T11:58:33.095Z,11.20
2018-04-13T12:00:59.585Z,11.10
2018-04-13T12:03:26.753Z,11.10
2018-04-13T12:05:53.343Z,11.10
2018-04-13T12:08:19.832Z,11.10
2018-04-13T12:10:47.068Z,11.10
2018-04-13T12:13:13.622Z,11.00
2018-04-13T12:15:40.121Z,11.10
2018-04-13T12:18:06.613Z,11.20
2018-04-13T12:20:33.248Z,11.20
2018-04-13T12:22:59.752Z,11.20
2018-04-13T12:25:33.324Z,11.10
2018-04-13T12:27:59.793Z,11.10
2018-04-13T12:30:26.257Z,11.10
2018-04-13T12:32:53.562Z,11.20
2018-04-13T12:35:20.073Z,11.20
2018-04-13T12:37:46.506Z,11.10
2018-04-13T12:40:13.026Z,11.10
2018-04-13T12:42:39.511Z,11.20
2018-04-13T12:45:05.957Z,11.20
2018-04-13T12:47:32.595Z,11.30
2018-04-13T12:49:59.112Z,11.40
2018-04-13T12:52:26.327Z,11.30
2018-04-13T12:54:53.062Z,11.30
2018-04-13T12:57:19.328Z,11.30
2018-04-13T12:59:52.762Z,11.20
2018-04-13T13:02:19.580Z,11.20
2018-04-13T13:04:46.037Z,11.20
2018-04-13T13:07:12.589Z,11.20
2018-04-13T13:09:39.072Z,11.20
2018-04-13T13:12:05.567Z,11.30
2018-04-13T13:14:32.065Z,11.40
2018-04-13T13:16:58.588Z,11.20
2018-04-13T13:19:25.162Z,11.20
2018-04-13T13:21:51.875Z,11.20
2018-04-13T13:24:18.310Z,11.30
2018-04-13T13:26:44.891Z,11.40
2018-04-13T13:29:11.445Z,11.30
2018-04-13T13:31:38.030Z,11.30
2018-04-13T13:34:04.565Z,11.20
2018-04-13T13:36:30.945Z,11.20
2018-04-13T13:38:57.458Z,11.20
2018-04-13T13:41:23.923Z,11.30
2018-04-13T13:43:50.731Z,11.40
2018-04-13T13:46:17.914Z,11.40
2018-04-13T13:48:44.341Z,11.40
2018-04-13T13:51:10.771Z,11.50
2018-04-13T13:53:37.241Z,11.30
2018-04-13T13:56:03.693Z,11.30
2018-04-13T13:58:30.171Z,11.10
2018-04-13T14:00:56.581Z,11.10
2018-04-13T14:03:23.013Z,11.10
2018-04-13T14:05:49.575Z,11.10
2018-04-13T14:08:16.008Z,11.10
2018-04-13T14:10:42.471Z,11.20
2018-04-13T14:13:08.921Z,11.30
2018-04-13T14:15:35.422Z,11.30
2018-04-13T14:18:01.844Z,11.20
2018-04-13T14:20:28.300Z,11.00
2018-04-13T14:22:54.707Z,10.90
2018-04-13T14:25:21.140Z,10.90
2018-04-13T14:27:47.559Z,10.90
2018-04-13T14:30:14.070Z,11.00
2018-04-13T14:32:40.428Z,11.00
2018-04-13T14:35:06.867Z,11.00
2018-04-13T14:37:33.300Z,11.00
2018-04-13T14:39:59.832Z,11.10
2018-04-13T14:42:26.401Z,11.00
2018-04-13T14:44:52.828Z,10.90
2018-04-13T14:47:19.272Z,11.00
2018-04-13T14:49:46.502Z,11.20
2018-04-13T14:52:13.081Z,11.10
2018-04-13T14:54:39.632Z,11.20
2018-04-13T14:57:06.174Z,11.30
2018-04-13T14:59:32.638Z,11.20
2018-04-13T15:01:59.131Z,11.30
2018-04-13T15:04:25.705Z,11.30
2018-04-13T15:06:52.157Z,11.40
2018-04-13T15:09:19.408Z,11.70
2018-04-13T15:11:46.601Z,11.60
2018-04-13T15:14:13.060Z,11.60
2018-04-13T15:16:39.500Z,11.60
2018-04-13T15:19:06.714Z,12.00
2018-04-13T15:21:33.188Z,12.00
2018-04-13T15:23:59.620Z,12.20
2018-04-13T15:26:26.082Z,12.30
2018-04-13T15:28:53.294Z,12.20
2018-04-13T15:31:19.697Z,12.30
2018-04-13T15:33:46.147Z,12.20
2018-04-13T15:36:12.658Z,12.00
2018-04-13T15:38:39.106Z,11.90
2018-04-13T15:41:06.474Z,12.00
2018-04-13T15:43:32.905Z,12.00
2018-04-13T15:45:59.407Z,12.20
2018-04-13T15:48:25.894Z,12.20
2018-04-13T15:50:53.055Z,12.50
2018-04-13T15:53:20.359Z,12.50
2018-04-13T15:55:46.871Z,12.50
2018-04-13T15:58:13.400Z,12.50
2018-04-13T16:00:39.776Z,12.60
2018-04-13T16:03:06.352Z,12.60
2018-04-13T16:05:33.644Z,12.70
2018-04-13T16:08:00.149Z,12.70
2018-04-13T16:10:26.600Z,12.80
2018-04-13T16:12:53.081Z,12.90
2018-04-13T16:15:19.582Z,13.00
2018-04-13T16:17:46.029Z,13.10
2018-04-13T16:20:13.357Z,12.80
2018-04-13T16:22:39.775Z,12.80
2018-04-13T16:25:06.293Z,12.80
2018-04-13T16:27:32.731Z,12.60
2018-04-13T16:29:59.171Z,12.80
2018-04-13T16:32:25.538Z,12.90
2018-04-13T16:34:51.999Z,13.10
2018-04-13T16:37:18.412Z,13.10
2018-04-13T16:39:44.846Z,13.10
2018-04-13T16:42:11.273Z,13.10
2018-04-13T16:44:37.796Z,13.10
2018-04-13T16:47:04.314Z,13.10
2018-04-13T16:49:30.843Z,13.00
2018-04-13T16:51:57.294Z,13.10
2018-04-13T16:54:23.751Z,13.20
2018-04-13T16:56:50.916Z,13.20
2018-04-13T16:59:17.455Z,13.20
2018-04-13T17:01:44.041Z,13.20
2018-04-13T17:04:10.578Z,13.20
2018-04-13T17:06:37.082Z,13.20
2018-04-13T17:09:04.290Z,13.20
2018-04-13T17:11:30.833Z,13.20
2018-04-13T17:13:58.094Z,13.00
2018-04-13T17:16:25.294Z,13.10
2018-04-13T17:18:51.759Z,13.10
2018-04-13T17:21:18.917Z,13.10
2018-04-13T17:23:45.364Z,13.00
2018-04-13T17:26:11.832Z,13.10
2018-04-13T17:28:38.357Z,13.10
2018-04-13T17:31:05.588Z,13.10
2018-04-13T17:33:32.121Z,13.20
2018-04-13T17:35:58.584Z,13.10
2018-04-13T17:38:25.118Z,13.10
2018-04-13T17:40:51.577Z,13.10
2018-04-13T17:43:18.744Z,13.20
2018-04-13T17:45:45.201Z,13.10
2018-04-13T17:48:11.619Z,13.10
2018-04-13T17:50:38.136Z,13.00
2018-04-13T17:53:04.741Z,12.90
2018-04-13T17:55:31.506Z,12.70
2018-04-13T17:57:58.757Z,12.60
2018-04-13T18:00:25.278Z,12.60
2018-04-13T18:02:52.470Z,12.60
2018-04-13T18:05:18.990Z,12.60
2018-04-13T18:07:45.466Z,12.60
2018-04-13T18:10:11.872Z,12.70
2018-04-13T18:12:38.352Z,12.70
2018-04-13T18:15:04.858Z,12.60
2018-04-13T18:17:31.406Z,12.60
2018-04-13T18:19:57.953Z,12.50
2018-04-13T18:22:24.455Z,12.40
2018-04-13T18:24:50.890Z,12.40
2018-04-13T18:27:17.327Z,12.40
2018-04-13T18:29:43.765Z,12.40
2018-04-13T18:32:10.237Z,12.40
2018-04-13T18:34:37.516Z,12.30
2018-04-13T18:37:05.032Z,12.30
2018-04-13T18:39:31.533Z,12.20
2018-04-13T18:41:58.017Z,12.10
2018-04-13T18:44:24.477Z,12.00
2018-04-13T18:46:51.702Z,12.10
2018-04-13T18:49:18.967Z,12.10
2018-04-13T18:51:45.454Z,12.10
2018-04-13T18:54:11.930Z,12.00
2018-04-13T18:56:38.428Z,11.90
2018-04-13T18:59:04.853Z,11.90
2018-04-13T19:01:31.402Z,11.80
2018-04-13T19:03:57.963Z,11.70
2018-04-13T19:06:24.482Z,11.70
2018-04-13T19:08:51.755Z,11.40
2018-04-13T19:11:18.251Z,11.30
2018-04-13T19:13:45.468Z,11.10
2018-04-13T19:16:11.961Z,11.00
2018-04-13T19:18:38.442Z,11.00
2018-04-13T19:21:04.945Z,11.10
2018-04-13T19:23:31.497Z,11.10
2018-04-13T19:25:57.953Z,11.10
2018-04-13T19:28:24.519Z,11.20
2018-04-13T19:30:51.005Z,11.20
2018-04-13T19:33:17.480Z,11.20
2018-04-13T19:35:44.727Z,11.30
2018-04-13T19:38:12.032Z,11.30
2018-04-13T19:40:38.541Z,11.30
2018-04-13T19:43:05.052Z,11.30
2018-04-13T19:45:31.693Z,11.30
2018-04-13T19:47:58.133Z,11.30
2018-04-13T19:50:24.781Z,11.30
2018-04-13T19:52:51.558Z,11.30
2018-04-13T19:55:18.060Z,11.20
2018-04-13T19:57:44.638Z,11.20
2018-04-13T20:00:11.181Z,11.20
2018-04-13T20:02:37.796Z,11.10
2018-04-13T20:05:04.306Z,11.10
2018-04-13T20:07:30.839Z,11.10
2018-04-13T20:09:57.330Z,11.00
2018-04-13T20:12:23.796Z,11.00
2018-04-13T20:14:51.173Z,11.00
2018-04-13T20:17:17.691Z,11.10
2018-04-13T20:19:44.124Z,11.10
2018-04-13T20:22:10.637Z,11.00
2018-04-13T20:24:37.108Z,11.10
2018-04-13T20:27:03.597Z,11.00
2018-04-13T20:29:30.251Z,10.90
2018-04-13T20:31:56.685Z,10.90
2018-04-13T20:34:23.148Z,10.90
2018-04-13T20:36:49.714Z,10.90
2018-04-13T20:39:16.993Z,10.80
2018-04-13T20:41:43.469Z,10.80
2018-04-13T20:44:09.941Z,10.80
2018-04-13T20:46:36.407Z,10.80
2018-04-13T20:49:02.991Z,10.80
2018-04-13T20:51:29.504Z,10.80
2018-04-13T20:53:55.965Z,10.80
2018-04-13T20:56:23.162Z,10.80
2018-04-13T20:58:50.614Z,10.80
2018-04-13T21:01:17.206Z,10.80
2018-04-13T21:03:44.451Z,10.60
2018-04-13T21:06:10.984Z,10.50
2018-04-13T21:08:38.132Z,10.50
2018-04-13T21:11:04.580Z,10.40
2018-04-13T21:13:31.026Z,10.40
2018-04-13T21:15:57.519Z,10.40
2018-04-13T21:18:24.726Z,10.40
2018-04-13T21:20:51.228Z,10.40
2018-04-13T21:23:17.712Z,10.30
2018-04-13T21:25:44.229Z,10.30
2018-04-13T21:28:10.775Z,10.20
2018-04-13T21:30:37.281Z,10.20
2018-04-13T21:33:03.865Z,10.30
2018-04-13T21:35:30.250Z,10.30
2018-04-13T21:37:56.697Z,10.40
2018-04-13T21:40:23.145Z,10.40
2018-04-13T21:42:49.532Z,10.40
2018-04-13T21:45:15.944Z,10.30
2018-04-13T21:47:43.125Z,10.30
2018-04-13T21:50:09.523Z,10.30
2018-04-13T21:52:36.687Z,10.10
2018-04-13T21:55:03.207Z,10.10
2018-04-13T21:57:29.767Z,10.10
2018-04-13T21:59:56.190Z,10.10
2018-04-13T22:02:22.596Z,9.90
2018-04-13T22:04:49.839Z,10.00
2018-04-13T22:07:16.241Z,10.00
2018-04-13T22:09:42.760Z,10.00
2018-04-13T22:12:27.462Z,10.10
2018-04-13T22:14:53.924Z,10.00
2018-04-13T22:17:20.380Z,10.00
2018-04-13T22:19:46.901Z,10.00
2018-04-13T22:22:13.454Z,10.10
2018-04-13T22:24:39.869Z,10.20
2018-04-13T22:27:06.370Z,10.20
2018-04-13T22:29:33.500Z,10.20
2018-04-13T22:32:00.685Z,10.20
2018-04-13T22:34:27.114Z,10.20
2018-04-13T22:36:54.304Z,9.80
2018-04-13T22:39:20.748Z,9.80
2018-04-13T22:41:47.135Z,9.80
2018-04-13T22:44:13.609Z,9.80
2018-04-13T22:46:39.996Z,9.80
2018-04-13T22:49:06.505Z,9.80
2018-04-13T22:51:33.657Z,9.90
2018-04-13T22:54:00.093Z,9.90
2018-04-13T22:56:27.239Z,10.00
2018-04-13T22:58:54.427Z,10.00
2018-04-13T23:01:20.913Z,10.00
2018-04-13T23:03:47.332Z,10.10
2018-04-13T23:06:13.781Z,10.10
2018-04-13T23:08:40.956Z,10.00
2018-04-13T23:11:07.372Z,10.00
2018-04-13T23:13:34.533Z,10.00
2018-04-13T23:16:00.956Z,10.00
2018-04-13T23:18:28.108Z,10.00
2018-04-13T23:21:04.530Z,9.90
2018-04-13T23:23:30.997Z,9.90
2018-04-13T23:25:57.440Z,9.90
2018-04-13T23:28:23.816Z,9.90
2018-04-13T23:30:50.245Z,9.90
2018-04-13T23:33:16.644Z,9.90
2018-04-13T23:35:43.042Z,9.80
2018-04-13T23:38:10.233Z,9.90
2018-04-13T23:40:36.738Z,9.80
2018-04-13T23:43:03.301Z,9.80
2018-04-13T23:45:29.738Z,9.80
2018-04-13T23:47:56.181Z,9.90
2018-04-13T23:50:22.608Z,9.90
2018-04-13T23:52:49.039Z,9.90
2018-04-13T23:55:15.440Z,9.90
2018-04-13T23:57:41.891Z,9.80
